createdAt,value
2022-09-12T00:02:03.585Z,94442.78
2022-09-12T00:04:30.673Z,94449.44
2022-09-12T00:06:57.993Z,94446.16
2022-09-12T00:09:24.952Z,94447.03
2022-09-12T00:11:51.870Z,94451.66
2022-09-12T00:14:19.399Z,94452.78
2022-09-12T00:16:46.474Z,94447.69
2022-09-12T00:19:13.584Z,94450.13
2022-09-12T00:21:41.040Z,94450.78
2022-09-12T00:24:09.173Z,94450.84
2022-09-12T00:26:36.138Z,94455.53
2022-09-12T00:29:03.179Z,94442.59
2022-09-12T00:31:30.338Z,94443.78
2022-09-12T00:34:00.959Z,94456.38
2022-09-12T00:36:29.708Z,94441.06
2022-09-12T00:38:56.649Z,94445.41
2022-09-12T00:41:27.214Z,94445.53
2022-09-12T00:43:59.826Z,94443.78
2022-09-12T00:46:44.358Z,94444.47
2022-09-12T00:49:57.690Z,94444.63
2022-09-12T00:52:55.020Z,94435.38
2022-09-12T00:55:28.574Z,94442.66
2022-09-12T00:58:09.795Z,94438.94
2022-09-12T01:00:36.613Z,94438.00
2022-09-12T01:03:11.398Z,94434.84
2022-09-12T01:05:44.655Z,94437.75
2022-09-12T01:08:12.579Z,94440.59
2022-09-12T01:10:42.226Z,94438.88
2022-09-12T01:13:11.189Z,94442.72
2022-09-12T01:15:39.841Z,94438.56
2022-09-12T01:18:51.742Z,94425.34
2022-09-12T01:21:47.367Z,94425.31
2022-09-12T01:24:49.065Z,94435.81
2022-09-12T01:27:53.580Z,94433.88
2022-09-12T01:30:55.660Z,94421.63
2022-09-12T01:34:20.745Z,94434.31
2022-09-12T01:37:06.013Z,94424.84
2022-09-12T01:40:16.486Z,94425.84
2022-09-12T01:43:18.548Z,94435.75
2022-09-12T01:46:01.229Z,94432.41
2022-09-12T01:48:37.224Z,94434.66
2022-09-12T01:51:19.023Z,94426.88
2022-09-12T01:53:51.014Z,94418.13
2022-09-12T01:56:28.842Z,94428.75
2022-09-12T01:59:11.405Z,94427.56
2022-09-12T02:01:47.706Z,94430.66
2022-09-12T02:04:25.110Z,94428.13
2022-09-12T02:07:29.150Z,94429.81
2022-09-12T02:10:32.528Z,94425.25
2022-09-12T02:13:22.234Z,94426.22
2022-09-12T02:15:54.629Z,94430.69
2022-09-12T02:18:21.753Z,94417.41
2022-09-12T02:20:50.435Z,94423.56
2022-09-12T02:23:41.392Z,94417.91
2022-09-12T02:26:20.643Z,94420.88
2022-09-12T02:28:48.225Z,94418.53
2022-09-12T02:31:54.874Z,94417.31
2022-09-12T02:34:49.639Z,94417.84
2022-09-12T02:38:02.268Z,94414.06
2022-09-12T02:40:30.528Z,94421.94
2022-09-12T02:42:58.020Z,94430.22
2022-09-12T02:45:25.036Z,94424.22
2022-09-12T02:48:25.322Z,94420.50
2022-09-12T02:50:52.262Z,94423.22
2022-09-12T02:53:19.724Z,94426.81
2022-09-12T02:55:47.031Z,94430.38
2022-09-12T02:58:18.835Z,94431.03
2022-09-12T03:01:20.184Z,94432.50
2022-09-12T03:04:33.380Z,94433.34
2022-09-12T03:07:50.707Z,94438.09
2022-09-12T03:40:28.222Z,94430.78
2022-09-12T03:42:56.337Z,94436.84
2022-09-12T03:45:24.242Z,94431.09
2022-09-12T03:47:51.158Z,94434.47
2022-09-12T03:50:18.229Z,94434.63
2022-09-12T03:52:45.286Z,94435.13
2022-09-12T03:55:12.407Z,94445.28
2022-09-12T03:57:39.321Z,94430.00
2022-09-12T04:00:08.826Z,94433.94
2022-09-12T04:02:42.337Z,94445.56
2022-09-12T04:05:09.451Z,94440.88
2022-09-12T04:07:36.436Z,94441.97
2022-09-12T04:10:04.117Z,94438.19
2022-09-12T04:12:31.150Z,94440.69
2022-09-12T04:14:58.112Z,94442.19
2022-09-12T04:17:25.117Z,94450.13
2022-09-12T04:19:52.097Z,94443.31
2022-09-12T04:22:18.977Z,94445.75
2022-09-12T04:24:45.942Z,94444.16
2022-09-12T04:27:12.851Z,94452.72
2022-09-12T04:29:39.807Z,94446.34
2022-09-12T04:32:06.707Z,94445.44
2022-09-12T04:34:33.716Z,94452.44
2022-09-12T04:37:00.698Z,94457.88
2022-09-12T04:39:27.718Z,94460.13
2022-09-12T04:41:54.789Z,94465.19
2022-09-12T04:44:21.875Z,94475.22
2022-09-12T04:46:48.917Z,94466.31
2022-09-12T04:49:19.605Z,94467.41
2022-09-12T04:51:47.352Z,94459.09
2022-09-12T04:54:17.392Z,94462.16
2022-09-12T04:56:47.735Z,94471.66
2022-09-12T04:59:17.640Z,94476.16
2022-09-12T05:01:45.035Z,94477.75
2022-09-12T05:04:13.234Z,94479.34
2022-09-12T05:06:41.997Z,94478.66
2022-09-12T05:09:20.312Z,94488.38
2022-09-12T05:12:05.470Z,94476.66
2022-09-12T05:14:40.519Z,94476.75
2022-09-12T05:17:10.580Z,94474.09
2022-09-12T05:19:46.122Z,94476.59
2022-09-12T05:22:14.742Z,94471.84
2022-09-12T05:24:47.264Z,94468.16
2022-09-12T05:27:16.967Z,94477.72
2022-09-12T05:29:44.001Z,94478.19
2022-09-12T05:32:12.741Z,94472.72
2022-09-12T05:34:40.693Z,94469.97
2022-09-12T05:37:07.872Z,94462.38
2022-09-12T05:39:35.115Z,94466.44
2022-09-12T05:42:02.584Z,94469.06
2022-09-12T05:44:29.581Z,94462.25
2022-09-12T05:46:56.529Z,94468.72
2022-09-12T05:49:23.653Z,94469.25
2022-09-12T05:51:51.805Z,94463.72
2022-09-12T05:54:20.723Z,94450.50
2022-09-12T05:56:49.108Z,94457.28
2022-09-12T05:59:21.081Z,94455.84
2022-09-12T06:01:48.805Z,94450.31
2022-09-12T06:04:16.371Z,94462.09
2022-09-12T06:06:48.898Z,94457.56
2022-09-12T06:09:16.963Z,94452.81
2022-09-12T06:11:45.538Z,94451.91
2022-09-12T06:14:19.837Z,94452.00
2022-09-12T06:16:51.386Z,94453.69
2022-09-12T06:19:25.762Z,94454.16
2022-09-12T06:21:54.810Z,94455.31
2022-09-12T06:24:26.324Z,94455.75
2022-09-12T06:26:58.155Z,94469.09
2022-09-12T06:29:28.943Z,94478.00
2022-09-12T06:32:02.952Z,94473.97
2022-09-12T06:34:31.645Z,94474.94
2022-09-12T06:37:01.975Z,94472.94
2022-09-12T06:39:30.705Z,94472.94
2022-09-12T06:42:00.208Z,94465.72
2022-09-12T06:44:34.342Z,94466.50
2022-09-12T06:47:01.366Z,94475.88
2022-09-12T06:49:28.614Z,94486.97
2022-09-12T06:51:55.585Z,94477.69
2022-09-12T06:54:23.454Z,94489.00
2022-09-12T06:56:50.520Z,94481.09
2022-09-12T06:59:17.453Z,94474.16
2022-09-12T07:01:44.626Z,94477.63
2022-09-12T07:04:11.762Z,94482.47
2022-09-12T07:06:41.322Z,94489.06
2022-09-12T07:09:10.985Z,94487.34
2022-09-12T07:11:39.600Z,94488.03
2022-09-12T07:14:07.965Z,94490.50
2022-09-12T07:16:38.082Z,94496.84
2022-09-12T07:19:07.451Z,94497.28
2022-09-12T07:21:40.795Z,94492.91
2022-09-12T07:24:10.496Z,94495.53
2022-09-12T07:26:42.612Z,94492.00
2022-09-12T07:32:04.326Z,94491.69
2022-09-12T07:34:31.939Z,94500.03
2022-09-12T07:36:59.103Z,94496.41
2022-09-12T07:39:26.372Z,94488.09
2022-09-12T07:41:53.261Z,94492.84
2022-09-12T07:44:21.586Z,94495.50
2022-09-12T07:46:48.455Z,94500.25
2022-09-12T07:49:15.330Z,94500.38
2022-09-12T07:51:42.230Z,94497.16
2022-09-12T07:54:13.312Z,94490.13
2022-09-12T07:56:40.972Z,94502.09
2022-09-12T07:59:08.838Z,94492.09
2022-09-12T08:14:56.998Z,94493.22
2022-09-12T08:17:24.008Z,94492.53
2022-09-12T08:19:50.990Z,94489.28
2022-09-12T08:22:18.905Z,94494.31
2022-09-12T08:24:45.926Z,94492.09
2022-09-12T08:27:15.028Z,94492.97
2022-09-12T08:29:42.452Z,94500.47
2022-09-12T08:32:09.522Z,94500.72
2022-09-12T08:34:36.536Z,94482.78
2022-09-12T08:37:04.353Z,94491.41
2022-09-12T08:39:32.884Z,94508.44
2022-09-12T08:42:05.629Z,94490.53
2022-09-12T08:45:10.077Z,94480.16
2022-09-12T08:47:41.748Z,94470.91
2022-09-12T08:50:20.863Z,94482.78
2022-09-12T08:53:04.535Z,94477.34
2022-09-12T08:55:41.159Z,94487.16
2022-09-12T08:58:24.668Z,94481.06
2022-09-12T09:01:15.782Z,94492.25
2022-09-12T09:04:06.164Z,94481.28
2022-09-12T09:07:21.302Z,94484.44
2022-09-12T09:42:40.471Z,94461.31
2022-09-12T09:45:21.284Z,94474.09
2022-09-12T09:48:44.115Z,94471.63
2022-09-12T09:51:12.230Z,94468.91
2022-09-12T09:54:05.984Z,94469.69
2022-09-12T09:56:42.730Z,94467.31
2022-09-12T09:59:17.297Z,94442.38
2022-09-12T10:01:50.342Z,94476.41
2022-09-12T10:04:20.263Z,94462.44
2022-09-12T10:06:47.454Z,94451.59
2022-09-12T10:09:33.375Z,94445.94
2022-09-12T10:12:02.486Z,94456.13
2022-09-12T10:14:40.652Z,94478.53
2022-09-12T10:17:34.706Z,94458.63
2022-09-12T10:20:21.655Z,94448.69
2022-09-12T10:22:49.882Z,94458.56
2022-09-12T10:25:20.470Z,94445.09
2022-09-12T10:27:54.614Z,94455.19
2022-09-12T10:30:25.220Z,94451.59
2022-09-12T10:32:52.530Z,94454.34
2022-09-12T10:35:31.306Z,94448.09
2022-09-12T10:38:05.190Z,94437.66
2022-09-12T10:40:38.012Z,94447.66
2022-09-12T10:43:18.348Z,94438.84
2022-09-12T10:45:45.606Z,94439.72
2022-09-12T10:48:32.331Z,94429.69
2022-09-12T10:51:01.289Z,94449.66
2022-09-12T10:53:34.538Z,94437.41
2022-09-12T10:56:08.833Z,94442.97
2022-09-12T10:59:18.088Z,94469.31
2022-09-12T11:01:48.977Z,94454.66
2022-09-12T11:04:53.211Z,94448.25
2022-09-12T11:07:59.622Z,94439.22
2022-09-12T11:11:07.856Z,94448.22
2022-09-12T11:14:09.516Z,94446.66
2022-09-12T11:17:13.917Z,94446.78
2022-09-12T11:20:31.767Z,94441.44
2022-09-12T11:23:17.941Z,94440.53
2022-09-12T11:26:06.317Z,94430.81
2022-09-12T11:29:02.065Z,94450.75
2022-09-12T11:32:02.219Z,94434.59
2022-09-12T11:35:22.672Z,94458.63
2022-09-12T11:38:40.301Z,94456.22
2022-09-12T11:41:41.654Z,94463.56
2022-09-12T11:44:40.351Z,94446.19
2022-09-12T11:47:17.102Z,94448.84
2022-09-12T11:49:52.562Z,94429.34
2022-09-12T11:52:30.420Z,94443.59
2022-09-12T11:55:04.174Z,94442.66
2022-09-12T11:57:41.874Z,94434.22
2022-09-12T12:00:30.922Z,94445.19
2022-09-12T12:03:38.493Z,94443.97
2022-09-12T12:06:19.574Z,94443.19
2022-09-12T12:08:47.516Z,94434.31
2022-09-12T12:11:26.050Z,94438.22
2022-09-12T12:14:20.070Z,94428.13
2022-09-12T12:16:47.780Z,94431.47
2022-09-12T12:19:36.189Z,94431.47
2022-09-12T12:22:23.347Z,94433.38
2022-09-12T12:25:33.197Z,94431.16
2022-09-12T12:28:06.630Z,94421.13
2022-09-12T12:31:02.760Z,94423.03
2022-09-12T12:33:53.975Z,94416.97
2022-09-12T12:36:41.094Z,94423.50
2022-09-12T12:39:54.091Z,94443.69
2022-09-12T12:42:57.841Z,94439.41
2022-09-12T12:45:48.628Z,94419.25
2022-09-12T12:48:19.362Z,94419.34
2022-09-12T12:50:46.817Z,94433.25
2022-09-12T12:53:28.598Z,94422.13
2022-09-12T12:55:56.361Z,94424.47
2022-09-12T12:58:43.108Z,94425.38
2022-09-12T13:01:17.215Z,94433.88
2022-09-12T13:03:54.475Z,94425.41
2022-09-12T13:06:41.858Z,94421.97
2022-09-12T13:09:23.261Z,94427.72
2022-09-12T13:12:01.419Z,94425.72
2022-09-12T13:14:56.582Z,94415.22
2022-09-12T13:17:45.094Z,94424.59
2022-09-12T13:20:28.371Z,94425.97
2022-09-12T13:22:56.867Z,94424.88
2022-09-12T13:25:32.515Z,94433.72
2022-09-12T13:28:28.919Z,94422.53
2022-09-12T13:31:26.462Z,94430.59
2022-09-12T13:34:00.758Z,94420.38
2022-09-12T13:37:06.701Z,94417.66
2022-09-12T13:40:05.626Z,94431.56
2022-09-12T13:42:40.166Z,94438.44
2022-09-12T13:45:38.462Z,94416.28
2022-09-12T13:48:10.391Z,94404.03
2022-09-12T13:50:43.108Z,94412.91
2022-09-12T13:53:17.650Z,94410.13
2022-09-12T13:55:52.211Z,94416.78
2022-09-12T13:58:27.898Z,94421.38
2022-09-12T14:01:22.916Z,94416.94
2022-09-12T14:04:15.318Z,94443.19
2022-09-12T14:06:48.971Z,94422.06
2022-09-12T14:09:34.918Z,94414.56
2022-09-12T14:12:03.336Z,94414.63
2022-09-12T14:14:36.825Z,94413.78
2022-09-12T14:17:24.233Z,94420.31
2022-09-12T14:19:52.948Z,94417.31
2022-09-12T14:22:20.048Z,94410.88
2022-09-12T14:24:51.764Z,94419.97
2022-09-12T14:27:29.459Z,94429.28
2022-09-12T14:30:09.231Z,94411.84
2022-09-12T14:32:36.523Z,94414.47
2022-09-12T14:35:33.488Z,94419.34
2022-09-12T14:38:13.114Z,94413.50
2022-09-12T14:40:46.301Z,94420.81
2022-09-12T14:43:32.617Z,94418.03
2022-09-12T14:46:02.961Z,94416.47
2022-09-12T14:48:33.295Z,94414.16
2022-09-12T14:51:01.737Z,94421.75
2022-09-12T14:53:34.734Z,94431.09
2022-09-12T14:56:13.285Z,94429.59
2022-09-12T14:58:41.618Z,94416.25
2022-09-12T15:01:28.852Z,94416.53
2022-09-12T15:03:56.392Z,94434.31
2022-09-12T15:06:33.845Z,94432.75
2022-09-12T15:09:06.377Z,94419.13
2022-09-12T15:11:34.012Z,94417.06
2022-09-12T15:14:13.091Z,94414.47
2022-09-12T15:16:40.151Z,94419.38
2022-09-12T15:19:07.248Z,94419.19
2022-09-12T15:21:34.173Z,94417.25
2022-09-12T15:24:01.189Z,94423.25
2022-09-12T15:26:30.836Z,94422.94
2022-09-12T15:28:58.241Z,94416.84
2022-09-12T15:31:30.742Z,94416.06
2022-09-12T15:34:00.594Z,94415.47
2022-09-12T15:36:29.164Z,94415.69
2022-09-12T15:38:56.492Z,94422.06
2022-09-12T15:41:27.725Z,94418.66
2022-09-12T15:43:54.702Z,94409.38
2022-09-12T15:46:21.673Z,94409.59
2022-09-12T15:48:48.962Z,94412.72
2022-09-12T15:51:21.288Z,94410.84
2022-09-12T15:53:50.269Z,94401.84
2022-09-12T15:56:19.229Z,94413.50
2022-09-12T15:58:58.385Z,94402.22
2022-09-12T16:01:27.351Z,94401.19
2022-09-12T16:03:54.416Z,94405.16
2022-09-12T16:06:22.483Z,94405.22
2022-09-12T16:08:49.701Z,94405.59
2022-09-12T16:11:27.503Z,94410.19
2022-09-12T16:13:56.824Z,94407.59
2022-09-12T16:16:23.918Z,94417.75
2022-09-12T16:18:50.907Z,94424.13
2022-09-12T16:21:18.330Z,94415.53
2022-09-12T16:23:46.737Z,94416.66
2022-09-12T16:26:13.969Z,94419.19
2022-09-12T16:28:41.226Z,94426.94
2022-09-12T16:31:11.953Z,94426.41
2022-09-12T16:33:39.433Z,94433.94
2022-09-12T16:36:09.561Z,94431.59
2022-09-12T16:38:44.728Z,94435.06
2022-09-12T16:41:12.206Z,94426.31
2022-09-12T16:43:40.361Z,94430.00
2022-09-12T16:46:19.666Z,94427.81
2022-09-12T16:48:52.066Z,94435.56
2022-09-12T16:51:22.676Z,94424.91
2022-09-12T16:53:50.501Z,94433.88
2022-09-12T16:56:17.850Z,94436.03
2022-09-12T16:58:45.323Z,94437.66
2022-09-12T17:01:15.322Z,94446.03
2022-09-12T17:03:42.391Z,94442.72
2022-09-12T17:06:12.105Z,94441.75
2022-09-12T17:08:42.960Z,94445.47
2022-09-12T17:11:17.454Z,94444.44
2022-09-12T17:14:06.181Z,94450.50
2022-09-12T17:16:35.525Z,94450.50
2022-09-12T17:19:02.686Z,94448.00
2022-09-12T17:21:29.705Z,94454.09
2022-09-12T17:23:56.743Z,94447.38
2022-09-12T17:26:25.206Z,94458.28
2022-09-12T17:28:52.237Z,94452.47
2022-09-12T17:31:19.170Z,94455.03
2022-09-12T17:33:46.407Z,94467.44
2022-09-12T17:36:16.681Z,94463.84
2022-09-12T17:38:45.348Z,94469.16
2022-09-12T17:41:17.970Z,94479.31
2022-09-12T17:43:46.682Z,94469.44
2022-09-12T17:46:14.316Z,94471.84
2022-09-12T17:48:41.856Z,94475.53
2022-09-12T17:51:14.988Z,94473.25
2022-09-12T17:53:42.593Z,94470.78
2022-09-12T17:56:11.313Z,94466.66
2022-09-12T17:58:38.809Z,94473.81
2022-09-12T18:01:32.143Z,94472.44
2022-09-12T18:04:03.714Z,94477.91
2022-09-12T18:06:31.939Z,94474.44
2022-09-12T18:09:07.689Z,94476.06
2022-09-12T18:11:35.415Z,94477.81
2022-09-12T18:14:02.908Z,94483.47
2022-09-12T18:16:31.582Z,94477.31
2022-09-12T18:19:01.580Z,94484.97
2022-09-12T18:21:29.366Z,94481.69
2022-09-12T18:24:00.311Z,94487.13
2022-09-12T18:26:28.812Z,94483.28
2022-09-12T18:28:56.202Z,94489.84
2022-09-12T18:31:25.034Z,94493.47
2022-09-12T18:33:52.278Z,94490.63
2022-09-12T18:36:20.090Z,94485.69
2022-09-12T18:38:48.137Z,94479.19
2022-09-12T18:41:22.671Z,94487.81
2022-09-12T18:43:54.341Z,94490.09
2022-09-12T18:46:21.297Z,94486.34
2022-09-12T18:48:48.350Z,94484.25
2022-09-12T18:51:18.145Z,94483.91
2022-09-12T18:53:53.522Z,94487.66
2022-09-12T18:56:21.701Z,94489.00
2022-09-12T18:58:56.909Z,94482.22
2022-09-12T19:01:29.369Z,94481.09
2022-09-12T19:03:57.091Z,94482.69
2022-09-12T19:06:27.022Z,94478.59
2022-09-12T19:08:55.645Z,94487.75
2022-09-12T19:11:23.778Z,94484.00
2022-09-12T19:13:52.042Z,94489.22
2022-09-12T19:16:21.938Z,94489.66
2022-09-12T19:18:49.830Z,94488.19
2022-09-12T19:21:24.829Z,94489.09
2022-09-12T19:23:53.155Z,94481.16
2022-09-12T19:26:21.470Z,94484.56
2022-09-12T19:28:48.912Z,94490.72
2022-09-12T19:31:21.828Z,94495.44
2022-09-12T19:33:49.750Z,94483.91
2022-09-12T19:36:41.227Z,94488.31
2022-09-12T19:39:07.050Z,94491.03
2022-09-12T19:41:34.069Z,94491.03
2022-09-12T19:44:01.553Z,94485.78
2022-09-12T19:46:28.515Z,94482.66
2022-09-12T19:48:55.630Z,94487.19
2022-09-12T19:51:24.156Z,94494.19
2022-09-12T19:53:51.718Z,94493.50
2022-09-12T19:56:18.814Z,94498.25
2022-09-12T19:58:50.877Z,94491.50
2022-09-12T20:01:25.026Z,94501.00
2022-09-12T20:03:55.269Z,94491.03
2022-09-12T20:06:22.691Z,94499.16
2022-09-12T20:08:50.070Z,94491.38
2022-09-12T20:11:19.642Z,94492.84
2022-09-12T20:13:46.945Z,94491.72
2022-09-12T20:16:25.887Z,94499.28
2022-09-12T20:18:55.459Z,94488.41
2022-09-12T20:21:31.899Z,94495.31
2022-09-12T20:24:17.352Z,94501.19
2022-09-12T20:26:44.844Z,94501.88
2022-09-12T20:29:12.035Z,94501.09
2022-09-12T20:31:41.160Z,94494.50
2022-09-12T20:34:14.700Z,94499.72
2022-09-12T20:36:41.822Z,94494.28
2022-09-12T20:39:14.822Z,94496.22
2022-09-12T20:41:41.774Z,94497.50
2022-09-12T20:44:09.424Z,94497.22
2022-09-12T20:46:36.647Z,94503.34
2022-09-12T20:49:04.167Z,94494.75
2022-09-12T20:51:31.574Z,94496.78
2022-09-12T20:54:00.629Z,94499.72
2022-09-12T20:56:28.766Z,94497.22
2022-09-12T20:58:56.136Z,94497.66
2022-09-12T21:01:23.770Z,94499.25
2022-09-12T21:03:51.175Z,94500.03
2022-09-12T21:06:19.221Z,94491.91
2022-09-12T21:08:47.359Z,94504.69
2022-09-12T21:11:15.308Z,94500.84
2022-09-12T21:13:42.348Z,94509.66
2022-09-12T21:16:14.312Z,94503.78
2022-09-12T21:18:41.616Z,94507.28
2022-09-12T21:21:10.748Z,94509.19
2022-09-12T21:23:38.041Z,94511.34
2022-09-12T21:26:05.063Z,94520.72
2022-09-12T21:28:31.969Z,94517.50
2022-09-12T21:30:58.929Z,94518.97
2022-09-12T21:33:26.171Z,94510.50
2022-09-12T21:35:53.044Z,94518.59
2022-09-12T21:38:20.778Z,94523.91
2022-09-12T21:40:47.982Z,94520.72
2022-09-12T21:43:15.113Z,94529.16
2022-09-12T21:45:42.254Z,94519.00
2022-09-12T21:48:09.443Z,94518.88
2022-09-12T21:50:36.367Z,94520.59
2022-09-12T21:53:03.337Z,94524.41
2022-09-12T21:55:30.227Z,94515.84
2022-09-12T21:57:57.442Z,94514.53
2022-09-12T22:00:24.411Z,94517.50
2022-09-12T22:02:51.315Z,94514.97
2022-09-12T22:05:20.486Z,94506.41
2022-09-12T22:07:47.388Z,94502.75
2022-09-12T22:10:14.888Z,94499.78
2022-09-12T22:12:46.212Z,94495.50
2022-09-12T22:15:39.035Z,94495.28
2022-09-12T22:18:01.449Z,94500.97
2022-09-12T22:20:28.461Z,94499.38
2022-09-12T22:23:13.757Z,94504.16
2022-09-12T22:25:40.949Z,94510.53
2022-09-12T22:28:07.820Z,94503.66
2022-09-12T22:30:34.794Z,94498.78
2022-09-12T22:33:01.744Z,94511.50
2022-09-12T22:35:28.626Z,94500.38
2022-09-12T22:37:55.539Z,94497.28
2022-09-12T22:40:22.469Z,94503.00
2022-09-12T22:42:52.442Z,94506.44
2022-09-12T22:45:20.075Z,94509.22
2022-09-12T22:47:47.087Z,94511.75
2022-09-12T22:50:14.226Z,94499.66
2022-09-12T22:52:41.791Z,94509.03
2022-09-12T22:55:09.215Z,94504.28
2022-09-12T22:57:36.471Z,94502.69
2022-09-12T23:00:14.162Z,94502.50
2022-09-12T23:02:41.474Z,94501.97
2022-09-12T23:05:08.942Z,94495.69
2022-09-12T23:07:35.855Z,94493.34
2022-09-12T23:10:02.810Z,94495.31
2022-09-12T23:12:32.033Z,94482.25
2022-09-12T23:14:58.973Z,94483.81
2022-09-12T23:17:25.878Z,94480.19
2022-09-12T23:19:52.912Z,94482.25
2022-09-12T23:22:20.040Z,94479.06
2022-09-12T23:24:47.266Z,94476.69
2022-09-12T23:27:14.214Z,94473.91
2022-09-12T23:29:41.087Z,94476.44
2022-09-12T23:32:08.113Z,94475.66
2022-09-12T23:34:35.037Z,94478.19
2022-09-12T23:37:01.937Z,94476.59
2022-09-12T23:39:28.957Z,94473.91
2022-09-12T23:41:55.903Z,94473.66
2022-09-12T23:44:22.806Z,94467.44
2022-09-12T23:46:49.713Z,94471.84
2022-09-12T23:49:16.598Z,94471.59
2022-09-12T23:51:43.565Z,94476.34
2022-09-12T23:54:10.501Z,94473.28
2022-09-12T23:56:37.390Z,94471.03
2022-09-12T23:59:04.490Z,94462.53
